Time;durP1;ratioP1;P1;durP2;ratioP2;P2;SDS_P1;SDS_P2;PMS_P1;PMS_P2;Temp;Humidity;BMP_temperature;BMP_pressure;BME280_temperature;BME280_humidity;BME280_pressure;Samples;Min_cycle;Max_cycle;Signal;HPM_P1;HPM_P2
2024/04/22 00:01:09;;;;;;;0.10;0.10;;;;;;;3.53;91.93;100923.69;2695846;26;20306;-77
2024/04/22 00:02:22;;;;;;;0.20;0.20;;;;;;;3.53;91.88;100921.09;2698482;26;20520;-76
2024/04/22 00:03:35;;;;;;;0.10;0.10;;;;;;;3.53;92.49;100921.09;2689385;26;20001;-76
2024/04/22 00:04:49;;;;;;;0.17;0.17;;;;;;;3.55;92.01;100919.44;2688948;26;20012;-76
2024/04/22 00:06:02;;;;;;;0.05;0.05;;;;;;;3.55;92.38;100920.31;2698490;26;20083;-75
2024/04/22 00:07:16;;;;;;;0.13;0.13;;;;;;;3.56;92.22;100913.44;2699880;26;20523;-75
2024/04/22 00:08:29;;;;;;;0.10;0.10;;;;;;;3.57;92.36;100916.06;2689384;26;20290;-75
2024/04/22 00:09:45;;;;;;;0.20;0.20;;;;;;;3.58;92.43;100910.03;2689899;26;20033;-75
2024/04/22 00:11:00;;;;;;;0.10;0.10;;;;;;;3.60;92.67;100912.69;2693830;26;20020;-75
2024/04/22 00:12:14;;;;;;;0.15;0.15;;;;;;;3.61;92.11;100917.84;2698778;26;20092;-76
2024/04/22 00:13:27;;;;;;;0.10;0.10;;;;;;;3.61;92.44;100911.81;2689243;26;20050;-76
2024/04/22 00:14:41;;;;;;;0.20;0.20;;;;;;;3.62;92.43;100905.84;2688567;26;20394;-76
2024/04/22 00:15:54;;;;;;;0.77;0.77;;;;;;;3.64;92.62;100904.16;2688630;26;20038;-76
2024/04/22 00:17:07;;;;;;;0.20;0.20;;;;;;;3.65;92.00;100905.91;2689498;26;20458;-76
2024/04/22 00:18:20;;;;;;;0.38;0.38;;;;;;;3.65;92.56;100906.78;2690086;26;20462;-75
2024/04/22 00:19:34;;;;;;;0.15;0.15;;;;;;;3.64;92.50;100904.16;2688523;26;20020;-75
2024/04/22 00:20:47;;;;;;;0.00;0.00;;;;;;;3.64;91.97;100904.16;2676852;26;20001;-76
2024/04/22 00:22:00;;;;;;;0.10;0.10;;;;;;;3.63;92.22;100905.00;2677685;26;20004;-76
2024/04/22 00:23:13;;;;;;;0.10;0.10;;;;;;;3.61;92.60;100909.25;2689209;26;20012;-76
2024/04/22 00:24:27;;;;;;;0.35;0.35;;;;;;;3.60;92.46;100907.53;2689415;26;20001;-76
2024/04/22 00:25:41;;;;;;;0.00;0.00;;;;;;;3.59;92.50;100905.75;2690133;26;20020;-76
2024/04/22 00:26:54;;;;;;;0.17;0.17;;;;;;;3.57;92.37;100905.75;2692189;26;20044;-76
2024/04/22 00:28:07;;;;;;;0.43;0.43;;;;;;;3.56;91.91;100903.97;2707154;26;20055;-76
2024/04/22 00:29:21;;;;;;;0.10;0.10;;;;;;;3.55;92.19;100909.13;2698361;26;20012;-76
2024/04/22 00:30:34;;;;;;;0.13;0.13;;;;;;;3.54;92.45;100913.41;2700508;26;20431;-76
2024/04/22 00:31:48;;;;;;;0.00;0.00;;;;;;;3.52;92.16;100915.06;2690656;26;19997;-76
2024/04/22 00:33:01;;;;;;;0.10;0.10;;;;;;;3.50;92.49;100901.25;2689181;26;20012;-76
2024/04/22 00:34:14;;;;;;;0.17;0.17;;;;;;;3.48;92.11;100903.81;2690103;26;19997;-76
2024/04/22 00:35:28;;;;;;;0.00;0.00;;;;;;;3.47;92.20;100906.34;2689406;26;20005;-76
2024/04/22 00:36:41;;;;;;;0.10;0.10;;;;;;;3.45;92.14;100913.16;2688169;26;20009;-76
2024/04/22 00:37:54;;;;;;;0.10;0.10;;;;;;;3.42;92.49;100906.22;2688592;26;20363;-76
2024/04/22 00:39:08;;;;;;;0.10;0.10;;;;;;;3.41;92.10;100909.66;2689427;26;20455;-76
2024/04/22 00:40:21;;;;;;;0.10;0.10;;;;;;;3.41;92.59;100907.06;2693164;26;20327;-75
2024/04/22 00:41:35;;;;;;;0.13;0.13;;;;;;;3.41;92.05;100901.06;2695644;26;20004;-76
2024/04/22 00:42:48;;;;;;;0.13;0.13;;;;;;;3.39;91.98;100906.16;2689594;26;20012;-76
2024/04/22 00:44:01;;;;;;;0.55;0.55;;;;;;;3.39;92.16;100906.16;2687950;26;20726;-75
2024/04/22 00:45:15;;;;;;;0.00;0.00;;;;;;;3.39;92.36;100906.16;2688938;26;20011;-76
2024/04/22 00:46:28;;;;;;;0.10;0.10;;;;;;;3.38;91.98;100906.09;2698948;26;20036;-76
2024/04/22 00:47:41;;;;;;;0.10;0.10;;;;;;;3.38;91.86;100904.44;2681376;26;20532;-76
2024/04/22 00:48:55;;;;;;;0.10;0.10;;;;;;;3.40;92.15;100905.31;2702365;26;20000;-75
2024/04/22 00:50:08;;;;;;;0.73;0.73;;;;;;;3.41;92.29;100908.78;2689363;26;20146;-75
2024/04/22 00:51:22;;;;;;;0.10;0.10;;;;;;;3.41;92.40;100913.94;2698434;26;19996;-75
2024/04/22 00:52:36;;;;;;;0.10;0.10;;;;;;;3.40;92.37;100907.91;2693759;26;20505;-75
2024/04/22 00:53:50;;;;;;;0.30;0.30;;;;;;;3.40;92.22;100912.19;2677026;26;20454;-75
2024/04/22 00:55:04;;;;;;;1.52;1.50;;;;;;;3.39;92.43;100911.31;2677704;26;20001;-76
2024/04/22 00:56:17;;;;;;;0.10;0.10;;;;;;;3.39;91.97;100908.75;2688495;26;20009;-77
2024/04/22 00:57:31;;;;;;;0.10;0.10;;;;;;;3.40;92.37;100915.63;2688192;26;20028;-76
2024/04/22 00:58:46;;;;;;;0.20;0.20;;;;;;;3.39;92.40;100913.03;2712026;26;20014;-76
2024/04/22 00:59:59;;;;;;;0.20;0.20;;;;;;;3.37;92.35;100910.41;2710318;26;20001;-76
2024/04/22 01:01:12;;;;;;;0.00;0.00;;;;;;;3.37;92.47;100910.41;2689624;26;20001;-76
2024/04/22 01:02:26;;;;;;;1.67;0.85;;;;;;;3.39;91.89;100905.28;2688612;26;20015;-76
2024/04/22 01:03:39;;;;;;;0.10;0.10;;;;;;;3.36;92.52;100908.66;2677518;26;20001;-76
2024/04/22 01:04:53;;;;;;;0.00;0.00;;;;;;;3.37;92.49;100906.97;2676474;26;20017;-75
2024/04/22 01:06:06;;;;;;;0.10;0.10;;;;;;;3.36;92.45;100908.66;2677143;26;20028;-75
2024/04/22 01:07:20;;;;;;;0.10;0.10;;;;;;;3.38;92.39;100912.16;2688746;26;20001;-75
2024/04/22 01:08:33;;;;;;;0.00;0.00;;;;;;;3.38;91.99;100912.16;2688460;26;20482;-75
2024/04/22 01:09:46;;;;;;;0.10;0.10;;;;;;;3.41;92.03;100911.38;2689227;26;20029;-75
2024/04/22 01:10:59;;;;;;;0.22;0.22;;;;;;;3.40;92.44;100910.47;2689603;26;20005;-75
2024/04/22 01:12:13;;;;;;;0.10;0.10;;;;;;;3.42;92.44;100913.09;2687959;26;20008;-75
2024/04/22 01:13:26;;;;;;;0.10;0.10;;;;;;;3.41;92.22;100919.13;2676966;26;20001;-75
2024/04/22 01:14:39;;;;;;;0.10;0.10;;;;;;;3.41;92.06;100912.25;2677184;26;20455;-75
2024/04/22 01:15:52;;;;;;;0.35;0.35;;;;;;;3.40;91.96;100918.22;2691179;26;20384;-75
2024/04/22 01:17:05;;;;;;;0.03;0.03;;;;;;;3.39;92.18;100919.06;2688452;26;20020;-75
2024/04/22 01:18:19;;;;;;;0.10;0.10;;;;;;;3.39;92.43;100918.19;2689457;26;20075;-75
2024/04/22 01:19:32;;;;;;;0.10;0.10;;;;;;;3.40;92.63;100917.34;2698963;26;20019;-75
2024/04/22 01:20:45;;;;;;;2.90;2.72;;;;;;;3.40;92.18;100914.78;2691806;26;20029;-75
2024/04/22 01:21:59;;;;;;;0.03;0.03;;;;;;;3.37;91.93;100912.97;2688276;26;20029;-75
2024/04/22 01:23:12;;;;;;;0.10;0.10;;;;;;;3.36;92.20;100915.53;2688895;26;20240;-76
2024/04/22 01:24:25;;;;;;;0.10;0.10;;;;;;;3.34;92.34;100909.47;2687326;26;20374;-75
2024/04/22 01:25:42;;;;;;;0.10;0.10;;;;;;;3.31;92.53;100915.41;2689019;26;20000;-75
2024/04/22 01:26:56;;;;;;;0.28;0.28;;;;;;;3.28;92.34;100912.78;2692006;26;20355;-75
2024/04/22 01:28:09;;;;;;;0.10;0.10;;;;;;;3.27;92.09;100917.03;2701174;26;20055;-75
2024/04/22 01:29:22;;;;;;;0.10;0.10;;;;;;;3.27;92.48;100918.75;2697053;26;20018;-75
2024/04/22 01:30:36;;;;;;;1.17;1.17;;;;;;;3.26;92.19;100917.88;2695767;26;20763;-75
2024/04/22 01:31:49;;;;;;;0.10;0.10;;;;;;;3.25;92.59;100915.25;2688425;26;20005;-75
2024/04/22 01:33:02;;;;;;;0.70;0.70;;;;;;;3.24;92.57;100916.09;2688613;26;20536;-75
2024/04/22 01:34:15;;;;;;;0.10;0.10;;;;;;;3.21;92.51;100914.31;2688442;26;20048;-76
2024/04/22 01:35:29;;;;;;;0.57;0.55;;;;;;;3.21;91.99;100911.72;2686693;26;20058;-76
2024/04/22 01:36:42;;;;;;;0.40;0.40;;;;;;;3.19;92.24;100912.53;2692905;26;20146;-75
2024/04/22 01:37:55;;;;;;;0.20;0.20;;;;;;;3.17;92.14;100909.91;2688084;26;20033;-75
2024/04/22 01:39:09;;;;;;;0.10;0.10;;;;;;;3.14;92.40;100907.25;2688401;26;20023;-75
2024/04/22 01:40:22;;;;;;;0.22;0.22;;;;;;;3.14;92.02;100901.22;2687902;26;20008;-75
2024/04/22 01:41:35;;;;;;;0.25;0.25;;;;;;;3.11;91.94;100908.88;2688948;26;20011;-75
2024/04/22 01:42:48;;;;;;;0.10;0.10;;;;;;;3.10;92.18;100912.28;2688699;26;20128;-75
2024/04/22 01:44:02;;;;;;;0.15;0.15;;;;;;;3.08;92.00;100911.38;2688751;26;20034;-75
2024/04/22 01:45:15;;;;;;;0.00;0.00;;;;;;;3.04;92.45;100906.13;2689551;26;20011;-75
2024/04/22 01:46:28;;;;;;;0.10;0.10;;;;;;;3.03;92.11;100904.38;2689126;26;20005;-75
2024/04/22 01:47:42;;;;;;;0.10;0.10;;;;;;;3.01;92.46;100900.91;2687725;26;20009;-76
2024/04/22 01:48:55;;;;;;;0.30;0.30;;;;;;;3.00;91.95;100909.47;2697265;26;20437;-75
2024/04/22 01:50:08;;;;;;;0.30;0.30;;;;;;;2.99;92.31;100909.41;2692087;26;20059;-75
2024/04/22 01:51:22;;;;;;;0.10;0.10;;;;;;;2.98;91.90;100908.56;2693909;26;20035;-75
2024/04/22 01:52:35;;;;;;;0.63;0.63;;;;;;;2.97;91.88;100904.25;2665462;26;20038;-75
2024/04/22 01:53:48;;;;;;;0.10;0.10;;;;;;;2.96;92.46;100906.78;2677199;26;20015;-75
2024/04/22 01:55:01;;;;;;;0.20;0.20;;;;;;;2.94;92.31;100901.56;2691922;26;20016;-75
2024/04/22 01:56:15;;;;;;;0.10;0.10;;;;;;;2.91;92.12;100906.63;2699177;26;20020;-75
2024/04/22 01:57:28;;;;;;;0.20;0.20;;;;;;;2.93;91.83;100907.56;2694099;26;20349;-75
2024/04/22 01:58:41;;;;;;;1.38;0.63;;;;;;;2.90;92.08;100899.75;2706710;26;20379;-75
2024/04/22 01:59:54;;;;;;;0.10;0.10;;;;;;;2.90;91.87;100902.31;2690203;26;20005;-75
2024/04/22 02:01:08;;;;;;;0.63;0.63;;;;;;;2.91;92.41;100905.78;2688412;26;20075;-75
2024/04/22 02:02:21;;;;;;;0.20;0.20;;;;;;;2.91;92.51;100895.47;2670697;26;20014;-75
2024/04/22 02:03:34;;;;;;;0.20;0.20;;;;;;;2.91;92.13;100903.19;2677068;26;20036;-75
2024/04/22 02:04:47;;;;;;;0.10;0.10;;;;;;;2.89;92.56;100900.59;2701512;26;20011;-75
2024/04/22 02:06:00;;;;;;;0.10;0.10;;;;;;;2.87;92.32;100891.94;2677214;26;20022;-75
2024/04/22 02:07:14;;;;;;;3.83;1.27;;;;;;;2.87;92.39;100891.06;2694318;26;20050;-75
2024/04/22 02:08:27;;;;;;;0.10;0.10;;;;;;;2.87;92.45;100894.53;2697240;26;20001;-75
2024/04/22 02:09:40;;;;;;;0.10;0.10;;;;;;;2.85;92.35;100891.03;2688625;26;20079;-75
2024/04/22 02:10:53;;;;;;;0.43;0.43;;;;;;;2.84;92.09;100897.03;2688708;26;20358;-75
2024/04/22 02:12:07;;;;;;;0.10;0.10;;;;;;;2.84;92.25;100902.19;2691342;26;20497;-75
2024/04/22 02:13:20;;;;;;;0.30;0.30;;;;;;;2.84;92.05;100892.72;2705787;26;20419;-75
2024/04/22 02:14:35;;;;;;;0.10;0.10;;;;;;;2.86;92.18;100899.63;2696179;26;20030;-75
2024/04/22 02:15:48;;;;;;;0.10;0.10;;;;;;;2.87;91.92;100899.69;2688917;26;20008;-75
2024/04/22 02:17:02;;;;;;;0.03;0.03;;;;;;;2.86;92.05;100895.34;2687624;26;20009;-75
2024/04/22 02:18:17;;;;;;;0.10;0.10;;;;;;;2.87;92.36;100891.94;2687611;26;20020;-75
2024/04/22 02:19:30;;;;;;;0.22;0.22;;;;;;;2.88;91.90;100897.97;2687948;26;20005;-75
2024/04/22 02:20:44;;;;;;;0.10;0.10;;;;;;;2.87;91.91;100897.09;2687464;26;20835;-75
2024/04/22 02:21:57;;;;;;;0.10;0.10;;;;;;;2.86;92.27;100897.91;2676695;26;20373;-75
2024/04/22 02:23:10;;;;;;;0.47;0.47;;;;;;;2.84;92.16;100902.19;2688403;26;20353;-75
2024/04/22 02:24:23;;;;;;;0.10;0.10;;;;;;;2.80;92.31;100901.19;2688499;26;20454;-75
2024/04/22 02:25:36;;;;;;;0.22;0.22;;;;;;;2.78;92.06;100902.84;2700139;26;20017;-75
2024/04/22 02:26:50;;;;;;;0.45;0.45;;;;;;;2.78;92.41;100909.72;2691551;26;20001;-75
2024/04/22 02:28:03;;;;;;;0.10;0.10;;;;;;;2.77;92.51;100903.69;2702368;26;20049;-75
2024/04/22 02:29:16;;;;;;;0.10;0.10;;;;;;;2.76;92.06;100904.53;2694986;26;20000;-75
2024/04/22 02:30:30;;;;;;;0.10;0.10;;;;;;;2.76;91.70;100899.41;2696148;26;20005;-75
2024/04/22 02:31:43;;;;;;;0.10;0.10;;;;;;;2.76;92.34;100904.53;2700913;26;20019;-75
2024/04/22 02:32:56;;;;;;;0.25;0.25;;;;;;;2.76;92.21;100898.50;2691584;26;20373;-75
2024/04/22 02:34:09;;;;;;;0.20;0.20;;;;;;;2.74;91.98;100897.59;2700206;26;20109;-75
2024/04/22 02:35:22;;;;;;;0.15;0.15;;;;;;;2.73;91.97;100898.41;2688237;26;20048;-75
2024/04/22 02:36:36;;;;;;;0.20;0.20;;;;;;;2.72;92.61;100897.56;2688610;26;20005;-75
2024/04/22 02:37:49;;;;;;;0.10;0.10;;;;;;;2.71;92.04;100898.41;2687921;26;20074;-75
2024/04/22 02:39:02;;;;;;;0.10;0.10;;;;;;;2.71;91.95;100912.97;2688149;26;20040;-75
2024/04/22 02:40:16;;;;;;;0.77;0.77;;;;;;;2.69;92.36;100896.59;2688627;26;20008;-76
2024/04/22 02:41:29;;;;;;;0.10;0.10;;;;;;;2.67;92.12;100898.25;2696193;26;20369;-75
2024/04/22 02:42:42;;;;;;;0.85;0.85;;;;;;;2.67;92.01;100898.25;2700966;26;19997;-75
2024/04/22 02:43:56;;;;;;;0.30;0.30;;;;;;;2.66;92.21;100902.56;2706207;26;20497;-75
2024/04/22 02:45:09;;;;;;;0.10;0.10;;;;;;;2.64;92.40;100903.34;2706056;26;20000;-75
2024/04/22 02:46:22;;;;;;;0.32;0.32;;;;;;;2.62;92.36;100899.00;2706726;26;20005;-75
2024/04/22 02:47:35;;;;;;;0.10;0.10;;;;;;;2.62;92.38;100905.84;2706672;26;20134;-76
2024/04/22 02:48:49;;;;;;;0.88;0.88;;;;;;;2.63;92.23;100902.44;2704736;26;20338;-76
2024/04/22 02:50:02;;;;;;;0.10;0.10;;;;;;;2.64;92.03;100903.34;2704714;26;20325;-75
2024/04/22 02:51:15;;;;;;;0.20;0.20;;;;;;;2.62;92.43;100900.72;2704886;26;20000;-77
2024/04/22 02:52:28;;;;;;;0.10;0.10;;;;;;;2.60;92.42;100903.22;2705233;26;20359;-75
2024/04/22 02:53:42;;;;;;;0.10;0.10;;;;;;;2.60;92.01;100900.66;2706360;26;20408;-76
2024/04/22 02:54:55;;;;;;;0.20;0.20;;;;;;;2.59;92.32;100908.34;2705589;26;20438;-76
2024/04/22 02:56:08;;;;;;;0.63;0.63;;;;;;;2.58;92.05;100899.75;2688434;26;20074;-75
2024/04/22 02:57:21;;;;;;;0.20;0.20;;;;;;;2.59;91.95;100895.47;2688580;26;20020;-75
2024/04/22 02:58:35;;;;;;;2.83;2.40;;;;;;;2.59;92.40;100898.06;2688443;26;20001;-75
2024/04/22 02:59:48;;;;;;;0.10;0.10;;;;;;;2.56;91.96;100897.97;2702675;26;20036;-76
2024/04/22 03:01:05;;;;;;;0.20;0.20;;;;;;;2.54;92.00;100891.91;2692788;26;20033;-75
2024/04/22 03:02:18;;;;;;;0.85;0.85;;;;;;;2.53;91.92;100897.84;2702056;26;20037;-75
2024/04/22 03:03:31;;;;;;;0.22;0.22;;;;;;;2.51;92.61;100887.53;2690282;26;20001;-75
2024/04/22 03:04:48;;;;;;;0.20;0.20;;;;;;;2.49;91.95;100881.47;2689692;26;20005;-75
2024/04/22 03:06:01;;;;;;;0.20;0.20;;;;;;;2.49;92.42;100891.75;2703898;26;20000;-75
2024/04/22 03:07:15;;;;;;;0.10;0.10;;;;;;;2.46;92.50;100889.09;2677178;26;20033;-75
2024/04/22 03:08:28;;;;;;;1.27;1.23;;;;;;;2.46;92.24;100886.53;2688744;26;20001;-75
2024/04/22 03:09:45;;;;;;;1.02;1.02;;;;;;;2.44;92.19;100885.59;2701143;26;20004;-75
2024/04/22 03:10:58;;;;;;;0.17;0.17;;;;;;;2.44;92.03;100884.75;2692193;26;20001;-75
2024/04/22 03:12:12;;;;;;;0.10;0.10;;;;;;;2.43;92.12;100883.88;2688605;26;20073;-75
2024/04/22 03:13:26;;;;;;;0.10;0.10;;;;;;;2.42;92.56;100886.41;2713163;26;19996;-75
2024/04/22 03:14:39;;;;;;;0.10;0.10;;;;;;;2.40;92.24;100888.91;2712580;26;20422;-75
2024/04/22 03:15:52;;;;;;;0.47;0.47;;;;;;;2.39;91.93;100887.19;2690251;26;20470;-75
2024/04/22 03:17:06;;;;;;;4.22;3.70;;;;;;;2.36;92.48;100884.53;2692744;26;20001;-75
2024/04/22 03:18:19;;;;;;;7.72;4.97;;;;;;;2.36;92.16;100881.94;2701812;26;19997;-75
2024/04/22 03:19:32;;;;;;;14.00;5.40;;;;;;;2.35;92.36;100877.59;2690071;26;20528;-75
2024/04/22 03:20:46;;;;;;;7.13;3.90;;;;;;;2.35;91.82;100885.34;2689869;26;20456;-75
2024/04/22 03:21:59;;;;;;;10.48;7.10;;;;;;;2.32;92.53;100880.09;2690074;26;19997;-75
2024/04/22 03:23:12;;;;;;;9.30;6.38;;;;;;;2.29;92.08;100886.03;2694841;26;20016;-75
2024/04/22 03:24:25;;;;;;;8.20;5.88;;;;;;;2.25;92.31;100883.34;2699601;26;20000;-75
2024/04/22 03:25:39;;;;;;;12.27;7.82;;;;;;;2.23;91.98;100883.28;2699275;26;19997;-75
2024/04/22 03:26:52;;;;;;;9.25;7.57;;;;;;;2.21;91.90;100887.53;2681280;26;20275;-75
2024/04/22 03:28:05;;;;;;;7.40;6.13;;;;;;;2.19;92.01;100884.03;2691639;26;19996;-75
2024/04/22 03:29:19;;;;;;;10.13;7.30;;;;;;;2.14;91.96;100877.88;2701523;26;20000;-75
2024/04/22 03:30:32;;;;;;;9.95;8.68;;;;;;;2.11;91.98;100881.22;2690300;26;19997;-75
2024/04/22 03:31:45;;;;;;;14.93;8.70;;;;;;;2.09;91.78;100876.84;2690199;26;19997;-75
2024/04/22 03:32:58;;;;;;;11.63;8.10;;;;;;;2.03;91.78;100872.41;2704136;26;20046;-75
2024/04/22 03:34:12;;;;;;;9.90;7.68;;;;;;;2.00;92.38;100882.63;2690364;26;19997;-75
2024/04/22 03:35:25;;;;;;;10.45;7.75;;;;;;;1.97;91.89;100882.53;2696311;26;20095;-75
2024/04/22 03:36:38;;;;;;;10.85;7.93;;;;;;;1.92;91.87;100879.81;2696117;26;20526;-75
2024/04/22 03:37:53;;;;;;;17.83;9.43;;;;;;;1.88;91.94;100871.94;2690317;26;19996;-75
2024/04/22 03:39:06;;;;;;;13.18;10.07;;;;;;;1.84;92.09;100875.28;2703944;26;19997;-75
2024/04/22 03:40:19;;;;;;;14.05;10.13;;;;;;;1.81;92.29;100885.44;2695713;26;19996;-75
2024/04/22 03:41:32;;;;;;;14.43;9.93;;;;;;;1.75;91.92;100874.13;2698504;26;20012;-75
2024/04/22 03:42:45;;;;;;;13.60;9.82;;;;;;;1.72;92.13;100880.91;2689931;26;19997;-75
2024/04/22 03:43:59;;;;;;;10.73;8.98;;;;;;;1.67;91.57;100887.59;2695377;26;20020;-75
2024/04/22 03:45:12;;;;;;;11.77;9.63;;;;;;;1.62;91.99;100879.75;2706923;26;20205;-76
2024/04/22 03:49:54;;;;;;;12.32;10.18;;;;;;;1.48;91.57;100875.88;2688558;26;20073;-74
2024/04/22 03:51:07;;;;;;;13.68;9.85;;;;;;;1.45;91.94;100878.34;2678742;26;20011;-74
2024/04/22 03:52:21;;;;;;;13.82;9.65;;;;;;;1.42;91.70;100880.81;2705739;26;20011;-74
2024/04/22 03:53:34;;;;;;;11.45;10.02;;;;;;;1.39;91.79;100880.72;2707790;26;20322;-74
2024/04/22 03:54:47;;;;;;;14.70;11.05;;;;;;;1.35;91.89;100882.31;2707638;26;20018;-74
2024/04/22 03:56:00;;;;;;;14.05;10.88;;;;;;;1.31;91.51;100889.03;2692565;26;20739;-74
2024/04/22 03:57:13;;;;;;;15.90;9.90;;;;;;;1.28;92.06;100891.53;2707674;26;20349;-74
2024/04/22 03:58:27;;;;;;;17.25;10.48;;;;;;;1.26;91.67;100889.72;2707452;26;19996;-74
2024/04/22 03:59:41;;;;;;;15.40;11.48;;;;;;;1.21;91.86;100884.41;2707625;26;20004;-74
2024/04/22 04:00:54;;;;;;;15.38;11.20;;;;;;;1.19;91.28;100893.81;2693249;26;20001;-74
2024/04/22 04:02:07;;;;;;;14.35;10.80;;;;;;;1.17;91.52;100890.31;2692877;26;20016;-74
2024/04/22 04:03:21;;;;;;;18.70;11.23;;;;;;;1.14;91.64;100889.34;2701843;26;20041;-74
2024/04/22 04:04:34;;;;;;;16.15;11.48;;;;;;;1.11;92.06;100890.13;2697759;26;20349;-74
2024/04/22 04:05:47;;;;;;;17.05;11.82;;;;;;;1.09;91.61;100889.19;2695505;26;20001;-74
2024/04/22 04:07:00;;;;;;;14.65;11.25;;;;;;;1.08;91.97;100895.13;2691320;26;20077;-74
2024/04/22 04:08:14;;;;;;;16.70;12.18;;;;;;;1.05;91.44;100892.47;2702841;26;20491;-74
2024/04/22 04:09:27;;;;;;;15.75;11.82;;;;;;;1.03;91.41;100897.56;2697212;26;19996;-74
2024/04/22 04:10:41;;;;;;;15.85;11.73;;;;;;;1.01;91.72;100899.19;2696490;26;20000;-74
2024/04/22 04:11:55;;;;;;;18.77;11.57;;;;;;;1.00;91.62;100896.56;2690100;26;20074;-74
2024/04/22 04:13:08;;;;;;;15.80;11.65;;;;;;;0.98;91.73;100898.19;2702931;26;20069;-74
2024/04/22 04:14:21;;;;;;;19.02;12.75;;;;;;;0.96;91.75;100894.72;2677841;26;20008;-74
2024/04/22 04:15:34;;;;;;;17.73;12.95;;;;;;;0.94;91.78;100896.38;2687002;26;20032;-73
2024/04/22 04:16:48;;;;;;;14.55;12.68;;;;;;;0.93;92.05;100903.22;2693981;26;20049;-73
2024/04/22 04:18:01;;;;;;;15.40;11.98;;;;;;;0.91;91.74;100902.28;2690771;26;20001;-73
2024/04/22 04:19:14;;;;;;;13.70;11.93;;;;;;;0.90;91.88;100895.38;2703240;26;20011;-73
2024/04/22 04:20:27;;;;;;;18.23;12.55;;;;;;;0.88;91.63;100894.47;2689284;26;19997;-74
2024/04/22 04:21:41;;;;;;;16.88;12.60;;;;;;;0.84;91.81;100896.03;2689897;26;19993;-74
2024/04/22 04:22:54;;;;;;;18.13;12.05;;;;;;;0.83;91.89;100899.44;2689433;26;20001;-73
2024/04/22 04:24:08;;;;;;;16.50;13.50;;;;;;;0.81;91.83;100895.94;2688785;26;20021;-73
2024/04/22 04:25:21;;;;;;;15.10;10.93;;;;;;;0.80;91.64;100893.31;2689748;26;20028;-73
2024/04/22 04:26:34;;;;;;;16.55;13.07;;;;;;;0.75;91.52;100888.03;2690125;26;20442;-73
2024/04/22 04:27:48;;;;;;;16.88;12.40;;;;;;;0.75;91.87;100890.59;2690014;26;20011;-77
2024/04/22 04:29:01;;;;;;;16.80;13.00;;;;;;;0.74;91.33;100890.53;2689133;26;20710;-76
2024/04/22 04:30:14;;;;;;;19.48;12.85;;;;;;;0.71;91.63;100900.72;2693220;26;20056;-76
2024/04/22 04:31:28;;;;;;;15.50;12.80;;;;;;;0.70;91.86;100897.28;2699746;26;19997;-76
2024/04/22 04:32:41;;;;;;;16.15;11.60;;;;;;;0.70;91.48;100898.94;2697162;26;20033;-76
2024/04/22 04:33:54;;;;;;;19.40;14.10;;;;;;;0.68;91.42;100903.16;2694042;26;20001;-74
2024/04/22 04:35:07;;;;;;;17.15;13.13;;;;;;;0.67;91.51;100899.69;2689665;26;20011;-74
2024/04/22 04:36:21;;;;;;;21.95;14.57;;;;;;;0.64;91.58;100897.91;2689428;26;20730;-73
2024/04/22 04:37:34;;;;;;;18.17;12.40;;;;;;;0.63;91.77;100896.16;2689649;26;20446;-75
2024/04/22 04:38:47;;;;;;;16.17;11.82;;;;;;;0.63;91.68;100900.44;2701528;26;19996;-75
2024/04/22 04:40:01;;;;;;;15.40;11.98;;;;;;;0.60;91.52;100902.91;2691447;26;20004;-76
2024/04/22 04:41:14;;;;;;;18.98;13.00;;;;;;;0.60;91.40;100897.75;2687659;26;20001;-73
2024/04/22 04:42:27;;;;;;;17.20;11.63;;;;;;;0.60;91.56;100906.34;2688989;26;20029;-73
2024/04/22 04:43:41;;;;;;;20.38;13.55;;;;;;;0.60;91.69;100905.47;2700164;26;20040;-74
2024/04/22 04:44:55;;;;;;;15.90;12.23;;;;;;;0.59;91.70;100901.13;2693722;26;20008;-73
2024/04/22 04:46:08;;;;;;;19.77;13.55;;;;;;;0.59;91.84;100904.56;2689542;26;20449;-74
2024/04/22 04:47:22;;;;;;;21.90;12.85;;;;;;;0.59;91.71;100898.56;2689868;26;20033;-73
2024/04/22 04:48:35;;;;;;;15.68;12.43;;;;;;;0.61;91.48;100902.06;2689295;26;19997;-73
2024/04/22 04:49:48;;;;;;;18.70;14.40;;;;;;;0.61;91.51;100908.06;2701609;26;20004;-73
2024/04/22 04:51:01;;;;;;;17.10;12.73;;;;;;;0.64;91.79;100908.19;2692995;26;20066;-73
2024/04/22 04:52:14;;;;;;;21.75;14.32;;;;;;;0.68;91.52;100903.16;2703140;26;19996;-73
2024/04/22 04:53:28;;;;;;;17.17;15.15;;;;;;;0.71;91.84;100908.41;2689585;26;20476;-73
2024/04/22 04:54:42;;;;;;;22.05;14.48;;;;;;;0.72;91.89;100900.75;2700071;26;20037;-74
2024/04/22 04:55:55;;;;;;;15.68;13.77;;;;;;;0.77;91.64;100906.91;2693722;26;20705;-76
2024/04/22 04:57:08;;;;;;;20.95;12.82;;;;;;;0.80;91.67;100908.72;2688352;26;20446;-76
2024/04/22 04:58:21;;;;;;;20.67;13.07;;;;;;;0.82;91.88;100907.94;2689468;26;20520;-73
2024/04/22 04:59:35;;;;;;;25.27;15.90;;;;;;;0.85;91.76;100908.09;2698099;26;20000;-73
2024/04/22 05:00:48;;;;;;;20.75;15.48;;;;;;;0.94;92.15;100909.22;2695320;26;20014;-73
2024/04/22 05:02:01;;;;;;;19.60;14.68;;;;;;;1.00;91.66;100902.56;2703163;26;20000;-73
2024/04/22 05:03:14;;;;;;;18.98;15.00;;;;;;;1.04;92.23;100912.16;2692725;26;19997;-74
2024/04/22 05:04:27;;;;;;;18.23;13.60;;;;;;;1.09;92.43;100910.59;2700186;26;20009;-73
2024/04/22 05:05:41;;;;;;;19.70;15.68;;;;;;;1.15;91.82;100909.94;2689951;26;19993;-73
2024/04/22 05:06:54;;;;;;;17.30;13.40;;;;;;;1.20;92.13;100910.09;2702531;26;20004;-73
2024/04/22 05:08:07;;;;;;;20.50;15.23;;;;;;;1.25;92.11;100908.56;2690377;26;20042;-73
2024/04/22 05:09:20;;;;;;;16.52;13.23;;;;;;;1.30;91.87;100915.59;2689656;26;19997;-73
2024/04/22 05:10:34;;;;;;;17.55;14.43;;;;;;;1.35;92.22;100918.31;2689392;26;19997;-74
2024/04/22 05:11:47;;;;;;;16.30;12.57;;;;;;;1.42;92.47;100921.94;2700936;26;20010;-74
2024/04/22 05:13:00;;;;;;;15.95;14.00;;;;;;;1.47;92.49;100921.31;2692380;26;20068;-74
2024/04/22 05:14:14;;;;;;;17.80;14.30;;;;;;;1.53;92.12;100918.91;2692368;26;20001;-74
2024/04/22 05:15:27;;;;;;;18.00;13.05;;;;;;;1.60;92.29;100920.00;2700306;26;20071;-74
2024/04/22 05:16:42;;;;;;;13.65;12.25;;;;;;;1.65;92.16;100925.28;2689020;26;20012;-74
2024/04/22 05:17:55;;;;;;;16.42;12.60;;;;;;;1.71;91.95;100925.47;2689780;26;20029;-74
2024/04/22 05:19:09;;;;;;;15.40;12.20;;;;;;;1.76;92.19;100921.34;2704019;26;19996;-74
2024/04/22 05:20:22;;;;;;;12.20;10.43;;;;;;;1.81;92.56;100924.03;2694165;26;19996;-74
2024/04/22 05:21:35;;;;;;;19.25;11.65;;;;;;;1.87;92.60;100926.84;2697950;26;19997;-75
2024/04/22 05:22:48;;;;;;;12.88;11.35;;;;;;;1.91;92.13;100924.41;2700370;26;19992;-75
2024/04/22 05:24:11;;;;;;;12.25;9.63;;;;;;;1.98;92.20;100930.59;2691947;26;20001;-75
2024/04/22 05:25:25;;;;;;;;;;;;;;;2.03;92.34;100926.47;2689139;26;20062;-74
2024/04/22 05:26:38;;;;;;;12.95;10.45;;;;;;;2.04;92.39;100920.50;2688830;26;19998;-74
2024/04/22 05:27:52;;;;;;;14.07;9.80;;;;;;;2.11;92.29;100927.56;2689020;26;19997;-74
2024/04/22 05:29:05;;;;;;;14.85;9.93;;;;;;;2.16;92.15;100923.44;2688471;26;19997;-74
2024/04/22 05:30:19;;;;;;;14.23;9.20;;;;;;;2.25;92.02;100921.97;2688685;26;20755;-75
2024/04/22 05:31:32;;;;;;;20.05;12.30;;;;;;;2.34;92.61;100933.41;2687770;26;19993;-74
2024/04/22 05:32:45;;;;;;;11.77;10.07;;;;;;;2.44;92.74;100929.41;2689013;26;20024;-75
2024/04/22 05:37:02;;;;;;;13.10;11.05;;;;;;;2.78;92.57;100923.47;2691357;26;20011;-74
2024/04/22 05:38:16;;;;;;;14.75;9.85;;;;;;;2.89;92.74;100926.38;2681629;26;20063;-75
2024/04/22 05:39:29;;;;;;;11.93;10.68;;;;;;;3.01;92.92;100928.38;2688436;26;20346;-74
2024/04/22 05:40:42;;;;;;;11.57;9.50;;;;;;;3.10;92.66;100925.16;2687930;26;20082;-75
2024/04/22 05:41:56;;;;;;;12.13;10.00;;;;;;;3.23;92.89;100937.56;2694259;26;19996;-75
2024/04/22 05:43:09;;;;;;;14.15;9.20;;;;;;;3.51;92.87;100928.78;2699803;26;20001;-76
2024/04/22 05:44:22;;;;;;;14.98;10.45;;;;;;;3.96;93.37;100935.03;2688837;26;20016;-75
2024/04/22 05:45:35;;;;;;;11.50;10.45;;;;;;;4.50;93.27;100931.91;2689574;26;19997;-75
2024/04/22 05:46:49;;;;;;;12.77;8.27;;;;;;;5.10;92.76;100926.16;2689599;26;20008;-75
2024/04/22 05:48:02;;;;;;;9.02;8.10;;;;;;;5.68;93.06;100931.47;2703203;26;20073;-75
2024/04/22 05:49:15;;;;;;;8.98;8.07;;;;;;;6.10;92.68;100928.66;2692017;26;20012;-75
2024/04/22 05:50:28;;;;;;;7.47;6.63;;;;;;;6.48;92.03;100927.41;2700006;26;20056;-75